Time;durP1;ratioP1;P1;durP2;ratioP2;P2;SDS_P1;SDS_P2;PMS_P1;PMS_P2;Temp;Humidity;BMP_temperature;BMP_pressure;BME280_temperature;BME280_humidity;BME280_pressure;Samples;Min_cycle;Max_cycle;Signal;HPM_P1;HPM_P2
2022/09/15 00:00:53;;;;;;;5.45;3.50;;;;;;;20.87;51.26;98675.36;2209929;88;25716;-81
2022/09/15 00:04:25;;;;;;;5.37;3.85;;;;;;;20.84;51.31;98671.52;2209919;87;25684;-81
2022/09/15 00:07:55;;;;;;;5.83;4.08;;;;;;;20.81;51.39;98666.83;2162106;90;25721;-81
2022/09/15 00:11:21;;;;;;;5.42;3.90;;;;;;;20.75;51.47;98663.55;2162683;89;25733;-81
2022/09/15 00:14:48;;;;;;;6.03;3.95;;;;;;;20.75;51.56;98662.66;2154649;90;25979;-81
2022/09/15 00:18:29;;;;;;;6.40;4.05;;;;;;;20.75;51.60;98660.02;2190434;87;25850;-81
2022/09/15 00:21:55;;;;;;;5.75;3.80;;;;;;;20.73;51.65;98660.09;2270839;84;25710;-82
2022/09/15 00:25:26;;;;;;;7.85;3.58;;;;;;;20.71;51.68;98651.82;2272087;83;25743;-82
2022/09/15 00:29:02;;;;;;;5.15;4.65;;;;;;;20.68;51.77;98654.13;2270188;84;26530;-81
2022/09/15 00:32:28;;;;;;;4.50;3.90;;;;;;;20.65;51.79;98662.68;2247474;86;25793;-81
2022/09/15 00:36:04;;;;;;;5.12;3.90;;;;;;;20.62;51.94;98660.17;2246912;86;25671;-81
2022/09/15 00:39:28;;;;;;;6.35;4.17;;;;;;;20.63;52.00;98671.17;2225923;88;25751;-82
2022/09/15 00:43:01;;;;;;;5.12;4.55;;;;;;;20.63;52.11;98680.44;2248476;86;25802;-82
2022/09/15 00:46:44;;;;;;;;;;;;;;;;;;;;;
2022/09/15 00:50:10;;;;;;;7.97;4.08;;;;;;;20.64;52.18;98674.21;2315906;84;25698;-82
2022/09/15 00:53:42;;;;;;;6.83;3.92;;;;;;;20.63;52.19;98681.77;2340601;83;25738;-82
2022/09/15 00:57:39;;;;;;;5.33;4.33;;;;;;;20.60;52.25;98690.70;2344018;83;25683;-82
2022/09/15 01:01:11;;;;;;;4.22;3.77;;;;;;;20.60;52.30;98679.25;2343698;83;25811;-82
2022/09/15 01:04:45;;;;;;;4.95;3.42;;;;;;;20.60;52.40;98666.87;2343500;83;25882;-81
2022/09/15 01:08:27;;;;;;;3.80;3.47;;;;;;;20.61;52.45;98655.81;2343296;83;25713;-82
2022/09/15 01:12:13;;;;;;;4.17;3.58;;;;;;;20.63;52.52;98650.00;2209965;88;25751;-81
2022/09/15 01:15:48;;;;;;;6.12;3.87;;;;;;;20.63;52.53;98644.70;2165925;89;25832;-82
2022/09/15 01:20:04;;;;;;;9.38;4.08;;;;;;;20.63;52.59;98647.34;2200911;89;25899;-81
2022/09/15 01:23:57;;;;;;;9.90;4.20;;;;;;;20.62;52.60;98646.93;2171112;89;25861;-81
2022/09/15 01:28:19;;;;;;;5.08;3.72;;;;;;;20.60;52.64;98639.54;2195724;88;25719;-82
2022/09/15 01:36:30;;;;;;;6.28;3.50;;;;;;;20.58;52.82;98628.14;2140884;90;25723;-82
2022/09/15 01:40:00;;;;;;;4.47;3.42;;;;;;;20.57;52.87;98620.67;2139758;92;25851;-81
2022/09/15 01:43:37;;;;;;;4.55;3.65;;;;;;;20.58;52.92;98628.14;2070499;95;25800;-80
2022/09/15 01:47:21;;;;;;;5.33;3.60;;;;;;;20.56;52.95;98618.11;2071450;94;26184;-81
2022/09/15 01:50:50;;;;;;;5.65;3.80;;;;;;;20.55;53.07;98622.52;2149284;90;25663;-82
2022/09/15 01:54:15;;;;;;;4.87;3.55;;;;;;;20.55;53.10;98620.34;2194754;88;25924;-81
2022/09/15 01:57:46;;;;;;;8.20;3.22;;;;;;;20.55;53.14;98621.66;2192584;90;26036;-82
2022/09/15 02:01:50;;;;;;;5.90;4.30;;;;;;;20.51;53.19;98616.97;2194862;90;30940;-82
2022/09/15 02:05:43;;;;;;;5.00;4.22;;;;;;;20.50;53.26;98616.13;2195603;88;25686;-82
2022/09/15 02:09:16;;;;;;;7.90;4.40;;;;;;;20.48;53.37;98613.96;2229534;87;25766;-82
2022/09/15 02:13:01;;;;;;;6.40;3.83;;;;;;;20.47;53.45;98615.38;2288627;83;25651;-81
2022/09/15 02:16:38;;;;;;;4.30;3.20;;;;;;;20.46;53.55;98604.39;2385980;82;25577;-81
2022/09/15 02:20:30;;;;;;;5.58;3.87;;;;;;;20.45;53.56;98607.95;2388630;82;25593;-82
2022/09/15 02:24:08;;;;;;;4.47;3.57;;;;;;;20.43;53.63;98608.03;2195433;88;25887;-82
2022/09/15 02:31:20;;;;;;;5.42;3.60;;;;;;;20.42;53.84;98592.23;2163697;89;25780;-81
2022/09/15 02:34:50;;;;;;;7.42;3.80;;;;;;;20.41;53.91;98590.02;2165417;89;25698;-81
2022/09/15 02:38:16;;;;;;;9.20;4.17;;;;;;;20.41;53.95;98584.73;2168236;91;25947;-81
2022/09/15 02:41:44;;;;;;;5.67;4.03;;;;;;;20.42;54.01;98584.30;2165985;89;26317;-81
2022/09/15 02:45:09;;;;;;;6.62;4.85;;;;;;;20.40;54.08;98580.38;2167601;90;25896;-82
2022/09/15 02:48:42;;;;;;;11.20;3.95;;;;;;;20.40;54.13;98578.20;2168110;89;26482;-81
2022/09/15 02:52:14;;;;;;;6.30;3.98;;;;;;;20.41;54.18;98585.20;2164551;89;25802;-82
2022/09/15 02:55:43;;;;;;;4.75;3.98;;;;;;;20.42;54.21;98585.62;2293526;84;25864;-82
2022/09/15 02:59:15;;;;;;;3.05;2.67;;;;;;;20.41;54.26;98596.64;2281551;86;25734;-81
2022/09/15 03:02:55;;;;;;;5.17;3.58;;;;;;;20.41;54.31;98597.11;2380274;82;25803;-81
2022/09/15 03:06:34;;;;;;;5.05;3.95;;;;;;;20.40;54.37;98586.99;2310908;84;25737;-82
2022/09/15 03:10:10;;;;;;;8.15;4.83;;;;;;;20.39;54.42;98587.93;2311133;85;26255;-82
2022/09/15 03:13:48;;;;;;;6.92;4.95;;;;;;;20.39;54.43;98585.28;2290009;84;25756;-81
2022/09/15 03:17:19;;;;;;;4.58;4.08;;;;;;;20.38;54.50;98582.69;2313955;82;25724;-81
2022/09/15 03:20:47;;;;;;;4.53;3.95;;;;;;;20.38;54.58;98578.72;2309055;84;25801;-81
2022/09/15 03:24:22;;;;;;;4.47;3.95;;;;;;;20.37;54.62;98569.07;2207351;89;25685;-81
2022/09/15 03:27:52;;;;;;;4.20;3.80;;;;;;;20.37;54.66;98567.28;2186912;89;25974;-81
2022/09/15 03:31:25;;;;;;;7.42;3.83;;;;;;;20.37;54.73;98574.37;2066804;94;26503;-81
2022/09/15 03:35:18;;;;;;;6.47;3.77;;;;;;;20.36;54.77;98576.16;2011749;96;25816;-81
2022/09/15 03:38:45;;;;;;;5.92;3.45;;;;;;;20.35;54.84;98573.56;2012237;96;26130;-82
2022/09/15 03:42:37;;;;;;;4.35;3.92;;;;;;;20.35;54.86;98577.53;1913109;102;25849;-81
2022/09/15 03:46:07;;;;;;;8.53;4.25;;;;;;;20.33;54.94;98571.00;1934020;100;25889;-81
2022/09/15 03:49:45;;;;;;;;;;;;;;;;;;;;;
2022/09/15 03:53:16;;;;;;;4.83;4.15;;;;;;;20.31;55.03;98583.43;1877697;103;25767;-82
2022/09/15 03:56:55;;;;;;;6.62;4.10;;;;;;;20.29;55.08;98588.80;1892389;103;25846;-81
2022/09/15 04:00:17;;;;;;;7.75;4.08;;;;;;;20.29;55.13;98578.22;1840337;106;25935;-81
2022/09/15 04:03:54;;;;;;;4.08;3.67;;;;;;;20.29;55.17;98574.72;1836329;105;25899;-81
2022/09/15 04:07:16;;;;;;;6.05;3.83;;;;;;;20.28;55.22;98586.20;1896475;101;25779;-81
2022/09/15 04:10:47;;;;;;;9.18;4.00;;;;;;;20.27;55.22;98588.00;1941640;98;26062;-80
2022/09/15 04:14:12;;;;;;;4.95;3.70;;;;;;;20.26;55.29;98586.76;1940851;101;25790;-80
2022/09/15 04:17:42;;;;;;;9.33;4.53;;;;;;;20.26;55.31;98596.02;1915183;102;25903;-81
2022/09/15 04:21:12;;;;;;;6.45;4.03;;;;;;;20.26;55.37;98590.73;1814924;106;26053;-79
2022/09/15 04:25:10;;;;;;;6.87;3.72;;;;;;;20.26;55.38;98583.64;1839020;105;25870;-81
2022/09/15 04:28:43;;;;;;;7.03;3.85;;;;;;;20.25;55.39;98583.73;1763084;110;25900;-81
2022/09/15 04:32:19;;;;;;;7.22;4.40;;;;;;;20.25;55.44;98580.61;1816501;105;25996;-81
2022/09/15 04:36:21;;;;;;;4.53;4.00;;;;;;;20.26;55.44;98569.56;1811694;105;25905;-81
2022/09/15 04:40:01;;;;;;;7.60;4.58;;;;;;;20.27;55.42;98567.30;1804583;106;25995;-81
2022/09/15 04:43:43;;;;;;;5.12;3.72;;;;;;;20.27;55.39;98563.33;1805597;106;25944;-81
2022/09/15 04:47:07;;;;;;;7.22;4.45;;;;;;;20.27;55.38;98565.51;1821079;107;25892;-80
2022/09/15 04:50:50;;;;;;;7.03;4.17;;;;;;;20.27;55.38;98568.63;1822231;106;25815;-81
2022/09/15 04:54:17;;;;;;;8.25;3.92;;;;;;;20.27;55.39;98562.86;1822281;105;25977;-80
2022/09/15 04:58:00;;;;;;;6.28;4.47;;;;;;;20.26;55.35;98561.63;1849461;105;25784;-81
2022/09/15 05:01:46;;;;;;;5.12;4.05;;;;;;;20.25;55.39;98566.53;1818821;104;25933;-81
2022/09/15 05:05:22;;;;;;;7.33;4.25;;;;;;;20.25;55.39;98570.03;1779772;110;25825;-81
2022/09/15 05:08:56;;;;;;;4.67;3.45;;;;;;;20.25;55.37;98571.82;1774335;110;25713;-80
2022/09/15 05:12:37;;;;;;;6.10;3.80;;;;;;;20.26;55.37;98571.73;1773650;108;25838;-81
2022/09/15 05:15:56;;;;;;;4.70;3.58;;;;;;;20.26;55.40;98578.35;1764557;109;26030;-81
2022/09/15 05:19:36;;;;;;;5.25;3.80;;;;;;;20.27;55.39;98581.38;1787342;109;25898;-80
2022/09/15 05:26:43;;;;;;;9.03;3.95;;;;;;;20.28;55.34;98575.63;1829427;105;25919;-80
2022/09/15 05:30:26;;;;;;;;;;;;;;;;;;;;;
2022/09/15 05:34:11;;;;;;;7.70;3.72;;;;;;;20.28;55.27;98571.66;1930623;95;25774;-79
2022/09/15 05:38:05;;;;;;;;;;;;;;;;;;;;;
2022/09/15 05:41:25;;;;;;;7.78;4.30;;;;;;;20.29;55.17;98578.22;1965952;97;25802;-79
2022/09/15 05:44:51;;;;;;;7.80;4.10;;;;;;;20.32;55.12;98581.63;1997911;96;26203;-79
2022/09/15 05:48:28;;;;;;;;;;;;;;;20.34;55.00;98577.15;1813608;109;25967;-80
2022/09/15 05:51:53;;;;;;;6.50;4.47;;;;;;;20.37;54.98;98582.30;1887034;103;25800;-80
2022/09/15 05:55:18;;;;;;;6.28;4.97;;;;;;;20.40;54.91;98580.84;1914680;103;25804;-79
2022/09/15 05:59:00;;;;;;;8.75;4.05;;;;;;;20.45;54.84;98584.13;1906458;102;26303;-79
2022/09/15 06:02:35;;;;;;;6.55;4.12;;;;;;;20.48;54.74;98584.84;1911603;100;26140;-80
2022/09/15 06:06:10;;;;;;;;;;;;;;;20.52;54.67;98593.56;1959754;100;25850;-79
2022/09/15 06:09:29;;;;;;;7.15;3.92;;;;;;;20.55;54.56;98590.75;1956334;100;25754;-80
2022/09/15 06:13:13;;;;;;;5.90;3.27;;;;;;;20.58;54.48;98599.03;1994263;97;26017;-80
2022/09/15 06:16:47;;;;;;;8.78;3.95;;;;;;;20.64;54.42;98598.75;1997568;97;25813;-80
2022/09/15 06:20:37;;;;;;;6.08;3.92;;;;;;;20.71;54.32;98595.74;2046736;95;26372;-80
2022/09/15 06:24:09;;;;;;;8.80;4.00;;;;;;;20.79;54.20;98601.14;2024384;96;25860;-79
2022/09/15 06:27:43;;;;;;;5.87;3.77;;;;;;;20.83;54.09;98602.28;2025369;97;25811;-80
2022/09/15 06:31:23;;;;;;;4.87;3.47;;;;;;;20.85;53.93;98603.52;1957766;95;25914;-80
2022/09/15 06:34:51;;;;;;;7.17;3.25;;;;;;;20.91;53.79;98604.56;1950042;100;25903;-80
2022/09/15 06:38:27;;;;;;;5.60;3.80;;;;;;;21.04;53.69;98601.72;1974378;98;25852;-81
2022/09/15 06:41:56;;;;;;;10.40;3.70;;;;;;;21.17;53.49;98605.51;2002491;96;25848;-88
2022/09/15 06:45:40;;;;;;;4.60;3.20;;;;;;;21.28;53.25;98607.63;2033100;96;25808;-79
2022/09/15 06:49:58;;;;;;;7.08;3.25;;;;;;;21.40;53.13;98611.06;2025088;96;25831;-82
2022/09/15 06:53:27;;;;;;;4.83;3.42;;;;;;;21.57;52.89;98615.53;2117890;92;25887;-80
2022/09/15 07:01:02;;;;;;;5.78;2.75;;;;;;;21.47;52.10;98622.70;2107886;88;25741;-81
2022/09/15 07:04:39;;;;;;;6.53;2.62;;;;;;;21.44;51.70;98623.22;2110254;91;25728;-80
2022/09/15 07:08:17;;;;;;;7.80;3.00;;;;;;;21.44;51.75;98621.90;2107677;93;25772;-80
2022/09/15 07:12:06;;;;;;;;;;;;;;;;;;;;;
2022/09/15 07:19:31;;;;;;;4.87;2.50;;;;;;;23.23;48.57;98621.45;2020674;97;26201;-81
2022/09/15 07:23:12;;;;;;;7.72;2.87;;;;;;;24.00;47.70;98636.06;2009327;96;25818;-80
2022/09/15 07:26:51;;;;;;;7.08;2.80;;;;;;;24.73;46.89;98636.55;2004842;98;25785;-80
2022/09/15 07:30:21;;;;;;;9.38;2.87;;;;;;;25.16;45.47;98642.73;2021611;95;26048;-80
2022/09/15 07:34:02;;;;;;;6.83;2.72;;;;;;;25.32;44.78;98649.27;2028055;96;25843;-81
2022/09/15 07:37:39;;;;;;;6.62;3.00;;;;;;;25.79;43.53;98651.98;2057356;96;25972;-80
2022/09/15 07:41:23;;;;;;;5.53;2.60;;;;;;;26.81;42.21;98645.46;2056038;94;25844;-80
2022/09/15 07:45:06;;;;;;;7.58;2.10;;;;;;;26.52;41.21;98662.19;2029745;96;25846;-79
2022/09/15 07:48:46;;;;;;;7.15;2.37;;;;;;;26.18;41.38;98662.29;2057038;93;25729;-80
2022/09/15 07:52:57;;;;;;;7.90;2.40;;;;;;;26.93;41.06;98663.81;2110564;92;26018;-80
2022/09/15 08:00:14;;;;;;;8.75;2.55;;;;;;;30.73;36.46;98686.77;1859322;104;25979;-81
2022/09/15 08:03:47;;;;;;;4.53;2.15;;;;;;;31.79;34.89;98683.64;1809561;106;25781;-82
2022/09/15 08:07:41;;;;;;;8.03;2.50;;;;;;;32.37;33.41;98698.52;1747402;110;26000;-80
2022/09/15 08:11:09;;;;;;;7.15;1.87;;;;;;;32.77;32.46;98689.87;1755996;110;25481;-82
2022/09/15 08:14:53;;;;;;;8.65;2.42;;;;;;;32.11;31.76;98687.95;1785923;108;25866;-81
2022/09/15 08:18:23;;;;;;;6.15;1.72;;;;;;;31.67;31.85;98677.53;1796787;107;25840;-81
2022/09/15 08:21:58;;;;;;;2.98;1.62;;;;;;;32.11;31.68;98686.61;1813431;108;25878;-82
2022/09/15 08:25:40;;;;;;;2.33;1.43;;;;;;;33.56;30.79;98680.84;1821974;105;25782;-80
2022/09/15 08:29:12;;;;;;;2.55;1.30;;;;;;;34.95;29.25;98694.23;1824553;106;26524;-79
2022/09/15 08:32:47;;;;;;;1.90;1.00;;;;;;;35.91;27.75;98698.54;1807206;107;25916;-82
2022/09/15 08:36:53;;;;;;;4.35;1.32;;;;;;;36.61;25.61;98704.91;1805803;107;25914;-79
2022/09/15 08:54:17;;;;;;;3.12;1.30;;;;;;;39.73;22.82;98708.58;1690866;115;25943;-82
2022/09/15 08:57:45;;;;;;;3.42;1.30;;;;;;;40.38;21.96;98708.12;1704937;113;25846;-81
2022/09/15 09:01:46;;;;;;;2.58;1.22;;;;;;;40.78;21.07;98715.63;1748903;110;25977;-80
2022/09/15 09:10:25;;;;;;;5.08;1.10;;;;;;;40.94;20.15;98728.64;1849655;106;26000;-78
2022/09/15 09:15:03;;;;;;;2.52;1.07;;;;;;;41.21;20.04;98726.45;1864356;102;25773;-79
2022/09/15 09:19:14;;;;;;;3.45;1.25;;;;;;;41.07;19.76;98724.66;1870307;104;25853;-82
2022/09/15 09:22:52;;;;;;;5.40;1.10;;;;;;;41.00;19.73;98714.18;1791989;108;25964;-80
2022/09/15 09:26:26;;;;;;;;;;;;;;;;;;;;;
2022/09/15 09:30:14;;;;;;;;;;;;;;;;;;;;;
2022/09/15 09:34:05;;;;;;;2.67;0.90;;;;;;;41.11;19.08;98713.67;1952123;99;25924;-80
2022/09/15 09:37:41;;;;;;;1.57;0.88;;;;;;;40.66;18.60;98716.36;1886437;103;25805;-80
2022/09/15 09:41:34;;;;;;;4.03;1.12;;;;;;;40.06;19.11;98713.02;1858742;105;25861;-80
2022/09/15 09:45:36;;;;;;;;;;;;;;;;;;;;;
2022/09/15 09:49:37;;;;;;;;;;;;;;;;;;;;;
2022/09/15 09:53:03;;;;;;;5.12;1.00;;;;;;;40.66;19.27;98699.44;1950175;99;25770;-78
2022/09/15 09:56:39;;;;;;;3.55;1.00;;;;;;;39.87;18.78;98700.87;1939298;100;25513;-77
2022/09/15 10:01:01;;;;;;;;;;;;;;;;;;;;;
2022/09/15 10:05:11;;;;;;;;;;;;;;;;;;;;;
2022/09/15 10:09:12;;;;;;;2.05;1.00;;;;;;;38.53;19.85;98686.89;1816994;107;26405;-80
2022/09/15 10:13:10;;;;;;;4.47;0.90;;;;;;;38.23;19.62;98693.05;1829664;105;25742;-85
